sensor_id;sensor_type;location;lat;lon;timestamp;pressure;altitude;pressure_sealevel;temperature
72278;BMP280;61204;49.980;8.358;2024-03-07T00:00:06;101270.63;;;5.51
72278;BMP280;61204;49.980;8.358;2024-03-07T00:02:46;101268.63;;;5.52
72278;BMP280;61204;49.980;8.358;2024-03-07T00:05:15;101277.84;;;5.49
72278;BMP280;61204;49.980;8.358;2024-03-07T00:07:44;101280.53;;;5.36
72278;BMP280;61204;49.980;8.358;2024-03-07T00:10:12;101275.94;;;5.31
72278;BMP280;61204;49.980;8.358;2024-03-07T00:12:40;101273.13;;;5.23
72278;BMP280;61204;49.980;8.358;2024-03-07T00:15:11;101275.22;;;5.30
72278;BMP280;61204;49.980;8.358;2024-03-07T00:17:38;101275.16;;;5.17
72278;BMP280;61204;49.980;8.358;2024-03-07T00:20:05;101285.53;;;5.18
72278;BMP280;61204;49.980;8.358;2024-03-07T00:22:37;101287.31;;;5.16
72278;BMP280;61204;49.980;8.358;2024-03-07T00:25:03;101281.97;;;5.10
72278;BMP280;61204;49.980;8.358;2024-03-07T00:27:32;101289.47;;;5.04
72278;BMP280;61204;49.980;8.358;2024-03-07T00:30:01;101283.91;;;4.96
72278;BMP280;61204;49.980;8.358;2024-03-07T00:32:29;101287.75;;;4.88
72278;BMP280;61204;49.980;8.358;2024-03-07T00:35:00;101278.56;;;4.91
72278;BMP280;61204;49.980;8.358;2024-03-07T00:37:29;101278.56;;;4.91
72278;BMP280;61204;49.980;8.358;2024-03-07T00:39:55;101272.16;;;4.88
72278;BMP280;61204;49.980;8.358;2024-03-07T00:42:22;101272.75;;;5.00
72278;BMP280;61204;49.980;8.358;2024-03-07T00:44:47;101281.75;;;5.08
72278;BMP280;61204;49.980;8.358;2024-03-07T00:47:15;101278.56;;;5.23
72278;BMP280;61204;49.980;8.358;2024-03-07T00:49:45;101281.28;;;5.23
72278;BMP280;61204;49.980;8.358;2024-03-07T00:52:14;101284.91;;;5.25
72278;BMP280;61204;49.980;8.358;2024-03-07T00:54:41;101288.59;;;5.28
72278;BMP280;61204;49.980;8.358;2024-03-07T00:57:08;101282.44;;;5.27
72278;BMP280;61204;49.980;8.358;2024-03-07T00:59:36;101280.75;;;5.24
72278;BMP280;61204;49.980;8.358;2024-03-07T01:02:02;101279.25;;;5.10
72278;BMP280;61204;49.980;8.358;2024-03-07T01:04:27;101279.78;;;5.09
72278;BMP280;61204;49.980;8.358;2024-03-07T01:06:57;101275.66;;;5.02
72278;BMP280;61204;49.980;8.358;2024-03-07T01:09:23;101273.91;;;5.05
72278;BMP280;61204;49.980;8.358;2024-03-07T01:11:50;101270.88;;;5.08
72278;BMP280;61204;49.980;8.358;2024-03-07T01:14:18;101274.34;;;5.09
72278;BMP280;61204;49.980;8.358;2024-03-07T01:16:46;101277.13;;;5.03
72278;BMP280;61204;49.980;8.358;2024-03-07T01:19:13;101268.91;;;5.09
72278;BMP280;61204;49.980;8.358;2024-03-07T01:21:40;101267.63;;;5.10
72278;BMP280;61204;49.980;8.358;2024-03-07T01:24:06;101277.06;;;5.09
72278;BMP280;61204;49.980;8.358;2024-03-07T01:26:31;101271.69;;;5.03
72278;BMP280;61204;49.980;8.358;2024-03-07T01:28:58;101262.59;;;5.14
72278;BMP280;61204;49.980;8.358;2024-03-07T01:31:24;101272.88;;;5.08
72278;BMP280;61204;49.980;8.358;2024-03-07T01:33:53;101264.50;;;5.06
72278;BMP280;61204;49.980;8.358;2024-03-07T01:36:19;101262.06;;;5.02
72278;BMP280;61204;49.980;8.358;2024-03-07T01:38:48;101266.03;;;5.01
72278;BMP280;61204;49.980;8.358;2024-03-07T01:41:16;101267.81;;;4.98
72278;BMP280;61204;49.980;8.358;2024-03-07T01:43:42;101262.88;;;4.97
72278;BMP280;61204;49.980;8.358;2024-03-07T01:46:10;101262.47;;;4.93
72278;BMP280;61204;49.980;8.358;2024-03-07T01:48:39;101267.19;;;4.92
72278;BMP280;61204;49.980;8.358;2024-03-07T01:51:05;101256.38;;;4.87
72278;BMP280;61204;49.980;8.358;2024-03-07T01:53:32;101255.66;;;4.86
72278;BMP280;61204;49.980;8.358;2024-03-07T01:55:59;101263.88;;;4.81
72278;BMP280;61204;49.980;8.358;2024-03-07T01:58:29;101263.13;;;4.80
72278;BMP280;61204;49.980;8.358;2024-03-07T02:00:56;101247.56;;;4.81
72278;BMP280;61204;49.980;8.358;2024-03-07T02:03:23;101248.63;;;4.78
72278;BMP280;61204;49.980;8.358;2024-03-07T02:05:51;101252.38;;;4.74
72278;BMP280;61204;49.980;8.358;2024-03-07T02:08:18;101251.66;;;4.74
72278;BMP280;61204;49.980;8.358;2024-03-07T02:10:47;101249.88;;;4.76
72278;BMP280;61204;49.980;8.358;2024-03-07T02:13:13;101251.41;;;4.72
72278;BMP280;61204;49.980;8.358;2024-03-07T02:15:39;101247.94;;;4.58
72278;BMP280;61204;49.980;8.358;2024-03-07T02:18:10;101241.25;;;4.40
72278;BMP280;61204;49.980;8.358;2024-03-07T02:20:35;101238.44;;;4.27
72278;BMP280;61204;49.980;8.358;2024-03-07T02:23:03;101230.59;;;4.23
72278;BMP280;61204;49.980;8.358;2024-03-07T02:25:32;101227.09;;;4.10
72278;BMP280;61204;49.980;8.358;2024-03-07T02:28:02;101231.56;;;4.07
72278;BMP280;61204;49.980;8.358;2024-03-07T02:30:33;101222.31;;;3.97
72278;BMP280;61204;49.980;8.358;2024-03-07T02:32:59;101220.41;;;3.92
72278;BMP280;61204;49.980;8.358;2024-03-07T02:35:32;101220.50;;;4.05
72278;BMP280;61204;49.980;8.358;2024-03-07T02:38:03;101221.88;;;4.12
72278;BMP280;61204;49.980;8.358;2024-03-07T02:40:30;101227.09;;;4.10
72278;BMP280;61204;49.980;8.358;2024-03-07T02:42:57;101225.16;;;4.05
72278;BMP280;61204;49.980;8.358;2024-03-07T02:45:23;101218.50;;;4.06
72278;BMP280;61204;49.980;8.358;2024-03-07T02:47:49;101230.16;;;4.00
72278;BMP280;61204;49.980;8.358;2024-03-07T02:50:15;101222.75;;;4.01
72278;BMP280;61204;49.980;8.358;2024-03-07T02:52:40;101221.88;;;3.93
72278;BMP280;61204;49.980;8.358;2024-03-07T02:55:06;101223.47;;;3.83
72278;BMP280;61204;49.980;8.358;2024-03-07T02:57:35;101215.69;;;3.73
72278;BMP280;61204;49.980;8.358;2024-03-07T03:00:02;101214.66;;;3.77
72278;BMP280;61204;49.980;8.358;2024-03-07T03:02:39;101214.38;;;3.80
72278;BMP280;61204;49.980;8.358;2024-03-07T03:05:05;101215.91;;;3.76
72278;BMP280;61204;49.980;8.358;2024-03-07T03:07:34;101207.75;;;3.76
72278;BMP280;61204;49.980;8.358;2024-03-07T03:10:00;101209.94;;;3.77
72278;BMP280;61204;49.980;8.358;2024-03-07T03:12:25;101216.09;;;3.78
72278;BMP280;61204;49.980;8.358;2024-03-07T03:14:51;101213.06;;;3.87
72278;BMP280;61204;49.980;8.358;2024-03-07T03:17:18;101220.69;;;3.88
72278;BMP280;61204;49.980;8.358;2024-03-07T03:19:44;101214.09;;;3.84
72278;BMP280;61204;49.980;8.358;2024-03-07T03:22:10;101211.66;;;3.80
72278;BMP280;61204;49.980;8.358;2024-03-07T03:24:36;101209.38;;;3.84
72278;BMP280;61204;49.980;8.358;2024-03-07T03:27:06;101212.34;;;3.86
72278;BMP280;61204;49.980;8.358;2024-03-07T03:29:33;101210.84;;;3.85
72278;BMP280;61204;49.980;8.358;2024-03-07T03:32:01;101211.94;;;3.77
72278;BMP280;61204;49.980;8.358;2024-03-07T03:34:26;101208.09;;;3.66
72278;BMP280;61204;49.980;8.358;2024-03-07T03:36:52;101209.91;;;3.58
72278;BMP280;61204;49.980;8.358;2024-03-07T03:39:17;101214.47;;;3.50
72278;BMP280;61204;49.980;8.358;2024-03-07T03:41:46;101208.13;;;3.42
72278;BMP280;61204;49.980;8.358;2024-03-07T03:44:11;101200.75;;;3.37
72278;BMP280;61204;49.980;8.358;2024-03-07T03:46:37;101203.00;;;3.33
72278;BMP280;61204;49.980;8.358;2024-03-07T03:49:02;101200.38;;;3.27
72278;BMP280;61204;49.980;8.358;2024-03-07T03:51:31;101193.06;;;3.22
72278;BMP280;61204;49.980;8.358;2024-03-07T03:53:57;101192.97;;;3.28
72278;BMP280;61204;49.980;8.358;2024-03-07T03:56:22;101196.19;;;3.26
72278;BMP280;61204;49.980;8.358;2024-03-07T03:58:48;101190.56;;;3.24
72278;BMP280;61204;49.980;8.358;2024-03-07T04:01:13;101194.44;;;3.29
72278;BMP280;61204;49.980;8.358;2024-03-07T04:03:42;101202.81;;;3.31
72278;BMP280;61204;49.980;8.358;2024-03-07T04:06:07;101189.91;;;3.37
72278;BMP280;61204;49.980;8.358;2024-03-07T04:08:33;101197.28;;;3.42
72278;BMP280;61204;49.980;8.358;2024-03-07T04:11:01;101199.72;;;3.45
72278;BMP280;61204;49.980;8.358;2024-03-07T04:13:28;101204.31;;;3.51
72278;BMP280;61204;49.980;8.358;2024-03-07T04:15:55;101195.25;;;3.48
72278;BMP280;61204;49.980;8.358;2024-03-07T04:18:21;101200.16;;;3.50
72278;BMP280;61204;49.980;8.358;2024-03-07T04:20:48;101202.56;;;3.53
72278;BMP280;61204;49.980;8.358;2024-03-07T04:23:14;101202.56;;;3.53
72278;BMP280;61204;49.980;8.358;2024-03-07T04:25:40;101200.44;;;3.46
72278;BMP280;61204;49.980;8.358;2024-03-07T04:28:06;101193.59;;;3.39
72278;BMP280;61204;49.980;8.358;2024-03-07T04:30:32;101200.47;;;3.40
72278;BMP280;61204;49.980;8.358;2024-03-07T04:32:57;101204.41;;;3.45
72278;BMP280;61204;49.980;8.358;2024-03-07T04:35:23;101208.34;;;3.44
72278;BMP280;61204;49.980;8.358;2024-03-07T04:37:49;101207.66;;;3.38
72278;BMP280;61204;49.980;8.358;2024-03-07T04:40:15;101204.00;;;3.35
72278;BMP280;61204;49.980;8.358;2024-03-07T04:42:47;101204.00;;;3.35
72278;BMP280;61204;49.980;8.358;2024-03-07T04:45:14;101203.00;;;3.33
72278;BMP280;61204;49.980;8.358;2024-03-07T04:47:41;101203.28;;;3.29
72278;BMP280;61204;49.980;8.358;2024-03-07T04:50:10;101199.63;;;3.27
72278;BMP280;61204;49.980;8.358;2024-03-07T04:52:37;101196.38;;;3.34
72278;BMP280;61204;49.980;8.358;2024-03-07T04:55:06;101196.88;;;3.32
72278;BMP280;61204;49.980;8.358;2024-03-07T04:57:39;101202.84;;;3.25
72278;BMP280;61204;49.980;8.358;2024-03-07T05:00:13;101202.47;;;3.15
72278;BMP280;61204;49.980;8.358;2024-03-07T05:02:41;101190.91;;;3.09
72278;BMP280;61204;49.980;8.358;2024-03-07T05:05:10;101193.91;;;3.06
72278;BMP280;61204;49.980;8.358;2024-03-07T05:07:48;101199.59;;;3.02
72278;BMP280;61204;49.980;8.358;2024-03-07T05:10:16;101191.00;;;2.98
72278;BMP280;61204;49.980;8.358;2024-03-07T05:12:41;101194.75;;;2.95
72278;BMP280;61204;49.980;8.358;2024-03-07T05:15:07;101194.00;;;2.94
72278;BMP280;61204;49.980;8.358;2024-03-07T05:17:35;101186.63;;;2.95
72278;BMP280;61204;49.980;8.358;2024-03-07T05:20:03;101194.00;;;2.94
72278;BMP280;61204;49.980;8.358;2024-03-07T05:22:38;101191.97;;;3.01
72278;BMP280;61204;49.980;8.358;2024-03-07T05:25:18;101189.09;;;2.93
72278;BMP280;61204;49.980;8.358;2024-03-07T05:27:45;101192.31;;;2.91
72278;BMP280;61204;49.980;8.358;2024-03-07T05:30:11;101191.09;;;2.92
72278;BMP280;61204;49.980;8.358;2024-03-07T05:32:40;101192.09;;;2.89
72278;BMP280;61204;49.980;8.358;2024-03-07T05:35:06;101192.09;;;2.89
72278;BMP280;61204;49.980;8.358;2024-03-07T05:37:36;101192.59;;;2.88
72278;BMP280;61204;49.980;8.358;2024-03-07T05:40:02;101197.31;;;2.82
72278;BMP280;61204;49.980;8.358;2024-03-07T05:42:28;101196.06;;;2.83
72278;BMP280;61204;49.980;8.358;2024-03-07T05:44:54;101188.94;;;2.80
72278;BMP280;61204;49.980;8.358;2024-03-07T05:47:20;101187.47;;;2.79
72278;BMP280;61204;49.980;8.358;2024-03-07T05:49:46;101187.19;;;2.82
72278;BMP280;61204;49.980;8.358;2024-03-07T05:52:15;101195.06;;;2.86
72278;BMP280;61204;49.980;8.358;2024-03-07T05:54:41;101184.47;;;2.88
72278;BMP280;61204;49.980;8.358;2024-03-07T05:57:08;101190.34;;;2.92
72278;BMP280;61204;49.980;8.358;2024-03-07T05:59:35;101193.53;;;2.90
72278;BMP280;61204;49.980;8.358;2024-03-07T06:02:01;101187.91;;;2.88
72278;BMP280;61204;49.980;8.358;2024-03-07T06:04:30;101187.84;;;2.94
72278;BMP280;61204;49.980;8.358;2024-03-07T06:06:57;101196.25;;;2.90
72278;BMP280;61204;49.980;8.358;2024-03-07T06:09:25;101194.78;;;2.89
72278;BMP280;61204;49.980;8.358;2024-03-07T06:11:51;101191.34;;;2.89
72278;BMP280;61204;49.980;8.358;2024-03-07T06:14:17;101201.47;;;2.88
72278;BMP280;61204;49.980;8.358;2024-03-07T06:16:43;101188.13;;;2.90
72278;BMP280;61204;49.980;8.358;2024-03-07T06:19:09;101198.41;;;2.97
72278;BMP280;61204;49.980;8.358;2024-03-07T06:21:37;101194.34;;;3.10
72278;BMP280;61204;49.980;8.358;2024-03-07T06:24:06;101189.25;;;3.31
72278;BMP280;61204;49.980;8.358;2024-03-07T06:26:35;101195.34;;;3.37
72278;BMP280;61204;49.980;8.358;2024-03-07T06:29:03;101190.59;;;3.43
72278;BMP280;61204;49.980;8.358;2024-03-07T06:31:32;101195.66;;;3.52
72278;BMP280;61204;49.980;8.358;2024-03-07T06:34:02;101194.94;;;3.52
72278;BMP280;61204;49.980;8.358;2024-03-07T06:36:31;101206.31;;;3.50
72278;BMP280;61204;49.980;8.358;2024-03-07T06:38:57;101203.78;;;3.52
72278;BMP280;61204;49.980;8.358;2024-03-07T06:41:23;101204.78;;;3.55
72278;BMP280;61204;49.980;8.358;2024-03-07T06:43:50;101200.72;;;3.42
72278;BMP280;61204;49.980;8.358;2024-03-07T06:46:16;101213.19;;;3.27
72278;BMP280;61204;49.980;8.358;2024-03-07T06:48:45;101198.56;;;3.11
72278;BMP280;61204;49.980;8.358;2024-03-07T06:51:13;101208.69;;;3.05
72278;BMP280;61204;49.980;8.358;2024-03-07T06:53:43;101201.09;;;3.03
72278;BMP280;61204;49.980;8.358;2024-03-07T06:56:10;101199.38;;;3.00
72278;BMP280;61204;49.980;8.358;2024-03-07T06:58:37;101202.34;;;2.96
72278;BMP280;61204;49.980;8.358;2024-03-07T07:01:04;101201.19;;;2.92
72278;BMP280;61204;49.980;8.358;2024-03-07T07:03:34;101208.06;;;2.93
72278;BMP280;61204;49.980;8.358;2024-03-07T07:06:01;101199.69;;;2.91
72278;BMP280;61204;49.980;8.358;2024-03-07T07:08:27;101204.78;;;3.00
72278;BMP280;61204;49.980;8.358;2024-03-07T07:10:55;101210.66;;;3.04
72278;BMP280;61204;49.980;8.358;2024-03-07T07:13:21;101203.47;;;3.12
72278;BMP280;61204;49.980;8.358;2024-03-07T07:15:49;101206.81;;;3.24
72278;BMP280;61204;49.980;8.358;2024-03-07T07:18:16;101216.81;;;3.35
72278;BMP280;61204;49.980;8.358;2024-03-07T07:20:43;101220.72;;;3.39
72278;BMP280;61204;49.980;8.358;2024-03-07T07:23:08;101219.16;;;3.50
72278;BMP280;61204;49.980;8.358;2024-03-07T07:25:34;101209.19;;;3.58
72278;BMP280;61204;49.980;8.358;2024-03-07T07:28:03;101211.06;;;3.68
72278;BMP280;61204;49.980;8.358;2024-03-07T07:30:30;101206.50;;;3.77
72278;BMP280;61204;49.980;8.358;2024-03-07T07:32:55;101214.00;;;3.89
72278;BMP280;61204;49.980;8.358;2024-03-07T07:35:22;101212.50;;;3.94
72278;BMP280;61204;49.980;8.358;2024-03-07T07:37:51;101220.50;;;4.05
72278;BMP280;61204;49.980;8.358;2024-03-07T07:40:22;101214.47;;;4.12
72278;BMP280;61204;49.980;8.358;2024-03-07T07:42:52;101213.88;;;4.19
72278;BMP280;61204;49.980;8.358;2024-03-07T07:45:22;101212.84;;;4.22
72278;BMP280;61204;49.980;8.358;2024-03-07T07:47:50;101211.31;;;4.27
72278;BMP280;61204;49.980;8.358;2024-03-07T07:50:19;101215.22;;;4.32
72278;BMP280;61204;49.980;8.358;2024-03-07T07:52:54;101214.31;;;4.42
72278;BMP280;61204;49.980;8.358;2024-03-07T07:55:27;101209.31;;;4.46
72278;BMP280;61204;49.980;8.358;2024-03-07T07:57:58;101220.66;;;4.64
72278;BMP280;61204;49.980;8.358;2024-03-07T08:00:27;101222.56;;;4.69
72278;BMP280;61204;49.980;8.358;2024-03-07T08:02:55;101217.56;;;4.73
72278;BMP280;61204;49.980;8.358;2024-03-07T08:05:27;101213.91;;;4.70
72278;BMP280;61204;49.980;8.358;2024-03-07T08:08:03;101213.00;;;4.81
72278;BMP280;61204;49.980;8.358;2024-03-07T08:10:32;101220.03;;;5.03
72278;BMP280;61204;49.980;8.358;2024-03-07T08:13:01;101219.84;;;5.14
72278;BMP280;61204;49.980;8.358;2024-03-07T08:15:29;101212.22;;;5.26
72278;BMP280;61204;49.980;8.358;2024-03-07T08:17:57;101220.19;;;5.37
72278;BMP280;61204;49.980;8.358;2024-03-07T08:20:25;101209.09;;;5.48
72278;BMP280;61204;49.980;8.358;2024-03-07T08:22:55;101212.16;;;5.58
72278;BMP280;61204;49.980;8.358;2024-03-07T08:25:25;101212.56;;;5.49
72278;BMP280;61204;49.980;8.358;2024-03-07T08:27:55;101213.16;;;5.82
72278;BMP280;61204;49.980;8.358;2024-03-07T08:30:23;101217.63;;;5.79
72278;BMP280;61204;49.980;8.358;2024-03-07T08:32:56;101221.25;;;5.74
72278;BMP280;61204;49.980;8.358;2024-03-07T08:35:27;101220.16;;;5.90
72278;BMP280;61204;49.980;8.358;2024-03-07T08:37:54;101224.38;;;5.91
72278;BMP280;61204;49.980;8.358;2024-03-07T08:40:25;101203.88;;;6.11
72278;BMP280;61204;49.980;8.358;2024-03-07T08:42:58;101221.31;;;6.92
72278;BMP280;61204;49.980;8.358;2024-03-07T08:45:25;101219.19;;;6.98
72278;BMP280;61204;49.980;8.358;2024-03-07T08:47:53;101224.78;;;6.29
72278;BMP280;61204;49.980;8.358;2024-03-07T08:50:24;101228.09;;;6.01
72278;BMP280;61204;49.980;8.358;2024-03-07T08:52:51;101212.78;;;6.12
72278;BMP280;61204;49.980;8.358;2024-03-07T08:55:23;101209.03;;;6.56
72278;BMP280;61204;49.980;8.358;2024-03-07T08:57:50;101202.22;;;6.92
72278;BMP280;61204;49.980;8.358;2024-03-07T09:00:19;101207.81;;;7.15
72278;BMP280;61204;49.980;8.358;2024-03-07T09:02:52;101215.53;;;6.95
72278;BMP280;61204;49.980;8.358;2024-03-07T09:05:23;101207.38;;;6.74
72278;BMP280;61204;49.980;8.358;2024-03-07T09:07:50;101211.81;;;7.42
72278;BMP280;61204;49.980;8.358;2024-03-07T09:10:18;101205.97;;;7.38
72278;BMP280;61204;49.980;8.358;2024-03-07T09:12:46;101214.94;;;7.18
72278;BMP280;61204;49.980;8.358;2024-03-07T09:15:17;101219.69;;;7.25
72278;BMP280;61204;49.980;8.358;2024-03-07T09:17:46;101202.53;;;7.45
72278;BMP280;61204;49.980;8.358;2024-03-07T09:20:13;101201.13;;;7.59
72278;BMP280;61204;49.980;8.358;2024-03-07T09:22:43;101213.44;;;7.81
72278;BMP280;61204;49.980;8.358;2024-03-07T09:25:09;101212.31;;;7.69
72278;BMP280;61204;49.980;8.358;2024-03-07T09:27:37;101210.19;;;8.06
72278;BMP280;61204;49.980;8.358;2024-03-07T09:30:05;101216.66;;;7.72
72278;BMP280;61204;49.980;8.358;2024-03-07T09:32:41;101184.50;;;7.34
72278;BMP280;61204;49.980;8.358;2024-03-07T09:35:08;101201.69;;;7.22
72278;BMP280;61204;49.980;8.358;2024-03-07T09:37:42;101204.66;;;7.31
72278;BMP280;61204;49.980;8.358;2024-03-07T09:40:11;101195.63;;;7.44
72278;BMP280;61204;49.980;8.358;2024-03-07T09:42:49;101193.94;;;7.77
72278;BMP280;61204;49.980;8.358;2024-03-07T09:45:20;101196.78;;;8.23
72278;BMP280;61204;49.980;8.358;2024-03-07T09:47:49;101190.00;;;8.09
72278;BMP280;61204;49.980;8.358;2024-03-07T09:50:17;101199.25;;;7.90
72278;BMP280;61204;49.980;8.358;2024-03-07T09:52:47;101200.53;;;8.05
72278;BMP280;61204;49.980;8.358;2024-03-07T09:55:19;101195.31;;;8.14
72278;BMP280;61204;49.980;8.358;2024-03-07T09:57:47;101186.75;;;8.10
72278;BMP280;61204;49.980;8.358;2024-03-07T10:00:18;101184.91;;;8.13
72278;BMP280;61204;49.980;8.358;2024-03-07T10:02:56;101182.53;;;9.01
72278;BMP280;61204;49.980;8.358;2024-03-07T10:05:30;101188.97;;;9.36
72278;BMP280;61204;49.980;8.358;2024-03-07T10:07:59;101180.94;;;9.31
72278;BMP280;61204;49.980;8.358;2024-03-07T10:10:26;101182.00;;;8.95
72278;BMP280;61204;49.980;8.358;2024-03-07T10:12:52;101172.50;;;7.97
72278;BMP280;61204;49.980;8.358;2024-03-07T10:15:30;101176.09;;;7.76
72278;BMP280;61204;49.980;8.358;2024-03-07T10:18:00;101175.34;;;7.68
72278;BMP280;61204;49.980;8.358;2024-03-07T10:20:32;101177.94;;;7.81
72278;BMP280;61204;49.980;8.358;2024-03-07T10:22:58;101175.66;;;8.31
72278;BMP280;61204;49.980;8.358;2024-03-07T10:25:25;101182.97;;;8.52
72278;BMP280;61204;49.980;8.358;2024-03-07T10:27:53;101177.09;;;8.25
72278;BMP280;61204;49.980;8.358;2024-03-07T10:30:20;101175.13;;;8.40
72278;BMP280;61204;49.980;8.358;2024-03-07T10:32:51;101168.72;;;8.07
72278;BMP280;61204;49.980;8.358;2024-03-07T10:35:21;101174.91;;;8.08
72278;BMP280;61204;49.980;8.358;2024-03-07T10:37:55;101172.75;;;8.44
72278;BMP280;61204;49.980;8.358;2024-03-07T10:40:25;101172.38;;;8.71
72278;BMP280;61204;49.980;8.358;2024-03-07T10:42:56;101169.25;;;8.67
72278;BMP280;61204;49.980;8.358;2024-03-07T10:45:23;101165.91;;;8.99
72278;BMP280;61204;49.980;8.358;2024-03-07T10:47:54;101169.41;;;8.92
72278;BMP280;61204;49.980;8.358;2024-03-07T11:00:04;101154.34;;;8.30
72278;BMP280;61204;49.980;8.358;2024-03-07T11:02:49;101150.81;;;8.90
72278;BMP280;61204;49.980;8.358;2024-03-07T11:05:19;101139.97;;;9.08
72278;BMP280;61204;49.980;8.358;2024-03-07T11:07:51;101139.03;;;8.65
72278;BMP280;61204;49.980;8.358;2024-03-07T11:10:21;101139.34;;;8.77
72278;BMP280;61204;49.980;8.358;2024-03-07T11:12:48;101140.25;;;8.79
72278;BMP280;61204;49.980;8.358;2024-03-07T11:15:16;101135.72;;;8.59
72278;BMP280;61204;49.980;8.358;2024-03-07T11:17:47;101143.91;;;8.59
72278;BMP280;61204;49.980;8.358;2024-03-07T11:20:22;101142.59;;;9.38
72278;BMP280;61204;49.980;8.358;2024-03-07T11:22:52;101135.66;;;9.05
72278;BMP280;61204;49.980;8.358;2024-03-07T11:25:22;101129.56;;;8.43
72278;BMP280;61204;49.980;8.358;2024-03-07T11:27:56;101123.19;;;8.17
72278;BMP280;61204;49.980;8.358;2024-03-07T11:30:25;101122.44;;;8.40
72278;BMP280;61204;49.980;8.358;2024-03-07T11:32:52;101119.31;;;8.59
72278;BMP280;61204;49.980;8.358;2024-03-07T11:35:34;101117.50;;;8.69
72278;BMP280;61204;49.980;8.358;2024-03-07T11:38:01;101114.44;;;8.42
72278;BMP280;61204;49.980;8.358;2024-03-07T11:42:55;101104.97;;;8.20
72278;BMP280;61204;49.980;8.358;2024-03-07T11:45:24;101104.78;;;8.49
72278;BMP280;61204;49.980;8.358;2024-03-07T11:47:55;101106.00;;;8.86
72278;BMP280;61204;49.980;8.358;2024-03-07T11:50:29;101095.78;;;8.86
72278;BMP280;61204;49.980;8.358;2024-03-07T11:53:00;101098.69;;;9.86
72278;BMP280;61204;49.980;8.358;2024-03-07T11:55:30;101096.78;;;10.73
72278;BMP280;61204;49.980;8.358;2024-03-07T11:58:17;101083.88;;;10.14
72278;BMP280;61204;49.980;8.358;2024-03-07T12:00:48;101084.38;;;10.38
72278;BMP280;61204;49.980;8.358;2024-03-07T12:03:19;101075.94;;;11.05
72278;BMP280;61204;49.980;8.358;2024-03-07T12:05:47;101054.28;;;10.13
72278;BMP280;61204;49.980;8.358;2024-03-07T12:08:14;101069.75;;;9.50
72278;BMP280;61204;49.980;8.358;2024-03-07T12:10:41;101058.13;;;9.67
72278;BMP280;61204;49.980;8.358;2024-03-07T12:13:12;101057.25;;;10.24
72278;BMP280;61204;49.980;8.358;2024-03-07T12:15:42;101051.97;;;9.59
72278;BMP280;61204;49.980;8.358;2024-03-07T12:18:10;101046.66;;;9.86
72278;BMP280;61204;49.980;8.358;2024-03-07T12:20:41;101047.53;;;10.31
72278;BMP280;61204;49.980;8.358;2024-03-07T12:23:12;101050.16;;;10.04
72278;BMP280;61204;49.980;8.358;2024-03-07T12:25:38;101056.13;;;10.27
72278;BMP280;61204;49.980;8.358;2024-03-07T12:30:56;101043.81;;;10.53
72278;BMP280;61204;49.980;8.358;2024-03-07T12:33:23;101039.69;;;10.62
72278;BMP280;61204;49.980;8.358;2024-03-07T12:35:51;101038.13;;;11.23
72278;BMP280;61204;49.980;8.358;2024-03-07T12:38:25;101034.97;;;11.63
72278;BMP280;61204;49.980;8.358;2024-03-07T12:41:04;101030.81;;;11.35
72278;BMP280;61204;49.980;8.358;2024-03-07T12:43:33;101023.78;;;11.41
72278;BMP280;61204;49.980;8.358;2024-03-07T12:45:59;101030.22;;;11.00
72278;BMP280;61204;49.980;8.358;2024-03-07T12:48:25;101011.06;;;9.86
72278;BMP280;61204;49.980;8.358;2024-03-07T12:50:52;101017.16;;;9.27
72278;BMP280;61204;49.980;8.358;2024-03-07T12:53:24;101011.59;;;9.42
72278;BMP280;61204;49.980;8.358;2024-03-07T12:55:54;101018.94;;;9.32
72278;BMP280;61204;49.980;8.358;2024-03-07T12:58:20;100997.81;;;9.75
72278;BMP280;61204;49.980;8.358;2024-03-07T13:00:56;101002.59;;;9.92
72278;BMP280;61204;49.980;8.358;2024-03-07T13:03:23;101006.72;;;10.18
72278;BMP280;61204;49.980;8.358;2024-03-07T13:05:56;101009.59;;;10.72
72278;BMP280;61204;49.980;8.358;2024-03-07T13:08:26;100996.41;;;10.70
72278;BMP280;61204;49.980;8.358;2024-03-07T13:10:54;100996.69;;;10.65
72278;BMP280;61204;49.980;8.358;2024-03-07T13:13:20;100982.38;;;10.66
72278;BMP280;61204;49.980;8.358;2024-03-07T13:15:46;100990.69;;;10.76
72278;BMP280;61204;49.980;8.358;2024-03-07T13:18:16;100976.56;;;10.79
72278;BMP280;61204;49.980;8.358;2024-03-07T13:20:45;100984.31;;;10.73
72278;BMP280;61204;49.980;8.358;2024-03-07T13:23:11;100983.59;;;11.00
72278;BMP280;61204;49.980;8.358;2024-03-07T13:25:37;100976.03;;;10.90
72278;BMP280;61204;49.980;8.358;2024-03-07T13:28:11;100978.94;;;10.93
72278;BMP280;61204;49.980;8.358;2024-03-07T13:30:42;100985.31;;;10.68
72278;BMP280;61204;49.980;8.358;2024-03-07T13:33:10;100976.88;;;10.83
72278;BMP280;61204;49.980;8.358;2024-03-07T13:35:38;100977.69;;;11.03
72278;BMP280;61204;49.980;8.358;2024-03-07T13:38:05;100971.19;;;10.81
72278;BMP280;61204;49.980;8.358;2024-03-07T13:40:33;100974.53;;;10.53
72278;BMP280;61204;49.980;8.358;2024-03-07T13:43:05;100965.28;;;10.75
72278;BMP280;61204;49.980;8.358;2024-03-07T13:45:36;100953.03;;;11.13
72278;BMP280;61204;49.980;8.358;2024-03-07T13:48:07;100943.97;;;11.30
72278;BMP280;61204;49.980;8.358;2024-03-07T13:50:46;100958.16;;;11.36
72278;BMP280;61204;49.980;8.358;2024-03-07T13:53:14;100954.91;;;11.10
72278;BMP280;61204;49.980;8.358;2024-03-07T14:00:00;100955.19;;;11.14
72278;BMP280;61204;49.980;8.358;2024-03-07T14:02:56;100956.81;;;11.17
72278;BMP280;61204;49.980;8.358;2024-03-07T14:05:59;100941.78;;;11.18
72278;BMP280;61204;49.980;8.358;2024-03-07T14:08:55;100942.94;;;10.79
72278;BMP280;61204;49.980;8.358;2024-03-07T14:18:43;100927.69;;;10.95
72278;BMP280;61204;49.980;8.358;2024-03-07T14:21:42;100930.59;;;10.97
72278;BMP280;61204;49.980;8.358;2024-03-07T14:27:41;100925.69;;;10.69
72278;BMP280;61204;49.980;8.358;2024-03-07T14:30:50;100926.19;;;10.30
72278;BMP280;61204;49.980;8.358;2024-03-07T14:33:47;100926.75;;;10.29
72278;BMP280;61204;49.980;8.358;2024-03-07T14:36:43;100920.75;;;10.40
72278;BMP280;61204;49.980;8.358;2024-03-07T14:39:14;100918.69;;;10.48
72278;BMP280;61204;49.980;8.358;2024-03-07T14:42:03;100925.06;;;10.33
72278;BMP280;61204;49.980;8.358;2024-03-07T14:44:42;100930.34;;;10.22
72278;BMP280;61204;49.980;8.358;2024-03-07T14:47:11;100927.81;;;10.16